GLD166 SSBN-SSTE
Flight info
| Callsign | GLD166 |
|---|---|
| Flight time | 0h 43m |
| Altitude | 3500 |
| Route | 3017S05058W 3015S05032W 3012S05016W 2947S05003W |
| Aircraft | C182/M-SDFGIRY/S |
Departure
| Time | 2026-05-06 20:41 |
|---|---|
| Airport | Belém Novo Airport (SSBN) |
Arrival
| Time | 2026-05-06 21:25 |
|---|---|
| Airport | Torres Airport (SSTE) |
| Time | Latitude | Longitude | Altitude | Speed | Heading |
|---|---|---|---|---|---|
| 2026-05-06 20:35 | -30.18768 | -51.18295 | 15 ft | 0 kts | 43° |
| 2026-05-06 20:36 | -30.18773 | -51.18300 | 15 ft | 2 kts | 43° |
| 2026-05-06 20:36 | -30.18785 | -51.18313 | 16 ft | 2 kts | 43° |
| 2026-05-06 20:37 | -30.18787 | -51.18315 | 16 ft | 0 kts | 43° |
| 2026-05-06 20:37 | -30.18787 | -51.18312 | 16 ft | 2 kts | 127° |
| 2026-05-06 20:37 | -30.18817 | -51.18297 | 16 ft | 8 kts | 147° |
| 2026-05-06 20:37 | -30.18811 | -51.18231 | 17 ft | 11 kts | 68° |
| 2026-05-06 20:38 | -30.18779 | -51.18131 | 16 ft | 16 kts | 75° |
| 2026-05-06 20:38 | -30.18748 | -51.18015 | 13 ft | 17 kts | 73° |
| 2026-05-06 20:38 | -30.18727 | -51.17944 | 14 ft | 10 kts | 71° |
| 2026-05-06 20:38 | -30.18700 | -51.17851 | 14 ft | 14 kts | 70° |
| 2026-05-06 20:39 | -30.18682 | -51.17737 | 13 ft | 16 kts | 117° |
| 2026-05-06 20:39 | -30.18692 | -51.17715 | 13 ft | 0 kts | 115° |
| 2026-05-06 20:40 | -30.18722 | -51.17681 | 13 ft | 8 kts | 187° |
| 2026-05-06 20:40 | -30.18772 | -51.17790 | 12 ft | 35 kts | 251° |
| 2026-05-06 20:41 | -30.18905 | -51.18237 | 56 ft | 74 kts | 251° |
| 2026-05-06 20:41 | -30.19089 | -51.18775 | 333 ft | 74 kts | 252° |
| 2026-05-06 20:41 | -30.19379 | -51.19280 | 567 ft | 84 kts | 213° |
| 2026-05-06 20:41 | -30.19919 | -51.19111 | 770 ft | 92 kts | 123° |
| 2026-05-06 20:42 | -30.20186 | -51.18418 | 1019 ft | 104 kts | 107° |
| 2026-05-06 20:42 | -30.20417 | -51.17611 | 1304 ft | 110 kts | 105° |
| 2026-05-06 20:42 | -30.20680 | -51.16711 | 1471 ft | 127 kts | 103° |
| 2026-05-06 20:42 | -30.20980 | -51.15712 | 1673 ft | 139 kts | 104° |
| 2026-05-06 20:43 | -30.21294 | -51.14630 | 1825 ft | 147 kts | 103° |
| 2026-05-06 20:43 | -30.21643 | -51.13468 | 2007 ft | 160 kts | 103° |
| 2026-05-06 20:43 | -30.22005 | -51.12246 | 2161 ft | 162 kts | 103° |
| 2026-05-06 20:43 | -30.22370 | -51.10994 | 2315 ft | 164 kts | 104° |
| 2026-05-06 20:44 | -30.22730 | -51.09742 | 2463 ft | 164 kts | 103° |
| 2026-05-06 20:44 | -30.23095 | -51.08482 | 2602 ft | 167 kts | 104° |
| 2026-05-06 20:44 | -30.23460 | -51.07203 | 2740 ft | 168 kts | 103° |
| 2026-05-06 20:44 | -30.23845 | -51.05903 | 2888 ft | 172 kts | 104° |
| 2026-05-06 20:45 | -30.24229 | -51.04596 | 3029 ft | 171 kts | 103° |
| 2026-05-06 20:45 | -30.24605 | -51.03298 | 3161 ft | 166 kts | 101° |
| 2026-05-06 20:45 | -30.24922 | -51.02029 | 3354 ft | 163 kts | 99° |
| 2026-05-06 20:45 | -30.25209 | -51.00798 | 3519 ft | 162 kts | 100° |
| 2026-05-06 20:46 | -30.25488 | -50.99510 | 3532 ft | 169 kts | 99° |
| 2026-05-06 20:46 | -30.25783 | -50.98163 | 3527 ft | 175 kts | 100° |
| 2026-05-06 20:46 | -30.26084 | -50.96791 | 3528 ft | 177 kts | 99° |
| 2026-05-06 20:46 | -30.26389 | -50.95411 | 3543 ft | 178 kts | 100° |
| 2026-05-06 20:47 | -30.26695 | -50.94001 | 3533 ft | 182 kts | 99° |
| 2026-05-06 20:47 | -30.26996 | -50.92585 | 3539 ft | 182 kts | 99° |
| 2026-05-06 20:47 | -30.27303 | -50.91150 | 3549 ft | 185 kts | 99° |
| 2026-05-06 20:47 | -30.27608 | -50.89712 | 3538 ft | 183 kts | 99° |
| 2026-05-06 20:48 | -30.27914 | -50.88278 | 3549 ft | 184 kts | 99° |
| 2026-05-06 20:48 | -30.28211 | -50.86849 | 3552 ft | 184 kts | 99° |
| 2026-05-06 20:48 | -30.28510 | -50.85424 | 3543 ft | 180 kts | 99° |
| 2026-05-06 20:48 | -30.28805 | -50.84007 | 3538 ft | 182 kts | 99° |
| 2026-05-06 20:49 | -30.29095 | -50.82604 | 3544 ft | 183 kts | 99° |
| 2026-05-06 20:49 | -30.29394 | -50.81167 | 3537 ft | 182 kts | 99° |
| 2026-05-06 20:49 | -30.29698 | -50.79731 | 3552 ft | 185 kts | 100° |
| 2026-05-06 20:49 | -30.29991 | -50.78295 | 3540 ft | 181 kts | 99° |
| 2026-05-06 20:50 | -30.30274 | -50.76884 | 3538 ft | 179 kts | 99° |
| 2026-05-06 20:50 | -30.30556 | -50.75481 | 3535 ft | 178 kts | 99° |
| 2026-05-06 20:50 | -30.30838 | -50.74083 | 3532 ft | 178 kts | 99° |
| 2026-05-06 20:50 | -30.31126 | -50.72688 | 3535 ft | 178 kts | 99° |
| 2026-05-06 20:51 | -30.31413 | -50.71297 | 3533 ft | 178 kts | 99° |
| 2026-05-06 20:51 | -30.31694 | -50.69922 | 3533 ft | 178 kts | 99° |
| 2026-05-06 20:51 | -30.31975 | -50.68529 | 3533 ft | 178 kts | 99° |
| 2026-05-06 20:51 | -30.31952 | -50.67153 | 3489 ft | 169 kts | 61° |
| 2026-05-06 20:52 | -30.31347 | -50.66024 | 3480 ft | 165 kts | 53° |
| 2026-05-06 20:52 | -30.30841 | -50.64823 | 3479 ft | 166 kts | 57° |
| 2026-05-06 20:52 | -30.30343 | -50.63618 | 3481 ft | 166 kts | 57° |
| 2026-05-06 20:52 | -30.29831 | -50.62416 | 3486 ft | 166 kts | 57° |
| 2026-05-06 20:53 | -30.29319 | -50.61219 | 3479 ft | 166 kts | 57° |
| 2026-05-06 20:53 | -30.28814 | -50.60020 | 3481 ft | 166 kts | 57° |
| 2026-05-06 20:53 | -30.28317 | -50.58815 | 3479 ft | 165 kts | 57° |
| 2026-05-06 20:53 | -30.27826 | -50.57631 | 3480 ft | 165 kts | 57° |
| 2026-05-06 20:54 | -30.27325 | -50.56431 | 3480 ft | 165 kts | 57° |
| 2026-05-06 20:54 | -30.26819 | -50.55235 | 3481 ft | 166 kts | 57° |
| 2026-05-06 20:54 | -30.26313 | -50.54035 | 3481 ft | 166 kts | 57° |
| 2026-05-06 20:54 | -30.25803 | -50.52831 | 3481 ft | 167 kts | 57° |
| 2026-05-06 20:55 | -30.25289 | -50.51627 | 3478 ft | 166 kts | 57° |
| 2026-05-06 20:55 | -30.24768 | -50.50425 | 3496 ft | 169 kts | 57° |
| 2026-05-06 20:55 | -30.24243 | -50.49202 | 3495 ft | 170 kts | 57° |
| 2026-05-06 20:55 | -30.23715 | -50.47976 | 3497 ft | 171 kts | 57° |
| 2026-05-06 20:56 | -30.23186 | -50.46737 | 3484 ft | 170 kts | 57° |
| 2026-05-06 20:56 | -30.22652 | -50.45512 | 3489 ft | 171 kts | 57° |
| 2026-05-06 20:56 | -30.22118 | -50.44287 | 3488 ft | 170 kts | 57° |
| 2026-05-06 20:56 | -30.21587 | -50.43068 | 3487 ft | 169 kts | 57° |
| 2026-05-06 20:57 | -30.21062 | -50.41863 | 3487 ft | 167 kts | 57° |
| 2026-05-06 20:57 | -30.20537 | -50.40665 | 3490 ft | 167 kts | 57° |
| 2026-05-06 20:57 | -30.20017 | -50.39482 | 3487 ft | 168 kts | 56° |
| 2026-05-06 20:57 | -30.19480 | -50.38271 | 3490 ft | 171 kts | 57° |
| 2026-05-06 20:58 | -30.18938 | -50.37057 | 3491 ft | 170 kts | 57° |
| 2026-05-06 20:58 | -30.18392 | -50.35840 | 3497 ft | 171 kts | 56° |
| 2026-05-06 20:58 | -30.17846 | -50.34612 | 3493 ft | 171 kts | 57° |
| 2026-05-06 20:58 | -30.17304 | -50.33394 | 3488 ft | 169 kts | 57° |
| 2026-05-06 20:59 | -30.16775 | -50.32198 | 3490 ft | 166 kts | 57° |
| 2026-05-06 20:59 | -30.16428 | -50.31411 | 3485 ft | 166 kts | 56° |
| 2026-05-06 20:59 | -30.15905 | -50.30224 | 3485 ft | 167 kts | 57° |
| 2026-05-06 20:59 | -30.15374 | -50.29024 | 3489 ft | 168 kts | 57° |
| 2026-05-06 21:00 | -30.14825 | -50.27815 | 3501 ft | 172 kts | 57° |
| 2026-05-06 21:00 | -30.14270 | -50.26605 | 3488 ft | 168 kts | 57° |
| 2026-05-06 21:00 | -30.13548 | -50.25032 | 3496 ft | 167 kts | 57° |
| 2026-05-06 21:00 | -30.13175 | -50.24231 | 3487 ft | 166 kts | 56° |
| 2026-05-06 21:01 | -30.12638 | -50.23074 | 3487 ft | 164 kts | 57° |
| 2026-05-06 21:01 | -30.12100 | -50.21915 | 3487 ft | 164 kts | 57° |
| 2026-05-06 21:01 | -30.11482 | -50.20826 | 3461 ft | 162 kts | 38° |
| 2026-05-06 21:01 | -30.10567 | -50.20076 | 3459 ft | 161 kts | 29° |
| 2026-05-06 21:02 | -30.09643 | -50.19346 | 3458 ft | 159 kts | 30° |
| 2026-05-06 21:02 | -30.08710 | -50.18691 | 3463 ft | 157 kts | 26° |
| 2026-05-06 21:02 | -30.07768 | -50.18072 | 3463 ft | 155 kts | 25° |
| 2026-05-06 21:02 | -30.06825 | -50.17446 | 3468 ft | 157 kts | 25° |
| 2026-05-06 21:03 | -30.05865 | -50.16802 | 3475 ft | 162 kts | 25° |
| 2026-05-06 21:03 | -30.04885 | -50.16155 | 3470 ft | 162 kts | 25° |
| 2026-05-06 21:03 | -30.03906 | -50.15511 | 3471 ft | 162 kts | 25° |
| 2026-05-06 21:03 | -30.02920 | -50.14858 | 3459 ft | 163 kts | 25° |
| 2026-05-06 21:04 | -30.01935 | -50.14207 | 3476 ft | 164 kts | 25° |
| 2026-05-06 21:04 | -30.00951 | -50.13555 | 3469 ft | 162 kts | 25° |
| 2026-05-06 21:04 | -29.99974 | -50.12906 | 3468 ft | 162 kts | 26° |
| 2026-05-06 21:04 | -29.99011 | -50.12269 | 3462 ft | 161 kts | 26° |
| 2026-05-06 21:05 | -29.98044 | -50.11640 | 3464 ft | 158 kts | 25° |
| 2026-05-06 21:05 | -29.97092 | -50.11009 | 3464 ft | 157 kts | 25° |
| 2026-05-06 21:05 | -29.96152 | -50.10383 | 3465 ft | 155 kts | 25° |
| 2026-05-06 21:05 | -29.95212 | -50.09769 | 3460 ft | 155 kts | 25° |
| 2026-05-06 21:06 | -29.94272 | -50.09160 | 3459 ft | 154 kts | 25° |
| 2026-05-06 21:06 | -29.93333 | -50.08548 | 3458 ft | 155 kts | 25° |
| 2026-05-06 21:06 | -29.92391 | -50.07930 | 3458 ft | 155 kts | 25° |
| 2026-05-06 21:06 | -29.91463 | -50.07328 | 3454 ft | 155 kts | 25° |
| 2026-05-06 21:07 | -29.90522 | -50.06722 | 3457 ft | 155 kts | 25° |
| 2026-05-06 21:07 | -29.89577 | -50.06120 | 3455 ft | 155 kts | 25° |
| 2026-05-06 21:07 | -29.88640 | -50.05513 | 3456 ft | 154 kts | 25° |
| 2026-05-06 21:07 | -29.87701 | -50.04920 | 3456 ft | 154 kts | 25° |
| 2026-05-06 21:08 | -29.86761 | -50.04330 | 3452 ft | 154 kts | 24° |
| 2026-05-06 21:08 | -29.85825 | -50.03727 | 3450 ft | 154 kts | 25° |
| 2026-05-06 21:08 | -29.84887 | -50.03130 | 3457 ft | 154 kts | 25° |
| 2026-05-06 21:08 | -29.83943 | -50.02539 | 3456 ft | 154 kts | 25° |
| 2026-05-06 21:09 | -29.83005 | -50.01950 | 3451 ft | 153 kts | 25° |
| 2026-05-06 21:09 | -29.82078 | -50.01364 | 3460 ft | 154 kts | 25° |
| 2026-05-06 21:09 | -29.81134 | -50.00771 | 3462 ft | 155 kts | 25° |
| 2026-05-06 21:09 | -29.80185 | -50.00169 | 3461 ft | 156 kts | 25° |
| 2026-05-06 21:10 | -29.79231 | -49.99575 | 3462 ft | 155 kts | 25° |
| 2026-05-06 21:10 | -29.78280 | -49.98983 | 3467 ft | 156 kts | 25° |
| 2026-05-06 21:10 | -29.77326 | -49.98379 | 3468 ft | 157 kts | 25° |
| 2026-05-06 21:10 | -29.76368 | -49.97780 | 3466 ft | 157 kts | 25° |
| 2026-05-06 21:11 | -29.75407 | -49.97182 | 3464 ft | 157 kts | 25° |
| 2026-05-06 21:11 | -29.74451 | -49.96585 | 3460 ft | 156 kts | 25° |
| 2026-05-06 21:11 | -29.73493 | -49.95987 | 3465 ft | 157 kts | 24° |
| 2026-05-06 21:11 | -29.72535 | -49.95384 | 3467 ft | 156 kts | 25° |
| 2026-05-06 21:12 | -29.71581 | -49.94788 | 3467 ft | 156 kts | 25° |
| 2026-05-06 21:12 | -29.70630 | -49.94189 | 3466 ft | 156 kts | 25° |
| 2026-05-06 21:12 | -29.69672 | -49.93580 | 3465 ft | 157 kts | 25° |
| 2026-05-06 21:12 | -29.68724 | -49.92989 | 3465 ft | 156 kts | 24° |
| 2026-05-06 21:13 | -29.67769 | -49.92389 | 3468 ft | 156 kts | 25° |
| 2026-05-06 21:13 | -29.66811 | -49.91790 | 3463 ft | 157 kts | 25° |
| 2026-05-06 21:13 | -29.65854 | -49.91195 | 3468 ft | 156 kts | 25° |
| 2026-05-06 21:13 | -29.64895 | -49.90598 | 3468 ft | 156 kts | 25° |
| 2026-05-06 21:14 | -29.63945 | -49.90007 | 3463 ft | 155 kts | 25° |
| 2026-05-06 21:14 | -29.62997 | -49.89417 | 3466 ft | 155 kts | 24° |
| 2026-05-06 21:14 | -29.62055 | -49.88819 | 3466 ft | 154 kts | 24° |
| 2026-05-06 21:14 | -29.61117 | -49.88220 | 3467 ft | 155 kts | 25° |
| 2026-05-06 21:15 | -29.60169 | -49.87631 | 3469 ft | 155 kts | 24° |
| 2026-05-06 21:15 | -29.59217 | -49.87032 | 3468 ft | 156 kts | 24° |
| 2026-05-06 21:15 | -29.58282 | -49.86441 | 3455 ft | 143 kts | 25° |
| 2026-05-06 21:15 | -29.57516 | -49.85841 | 3279 ft | 128 kts | 40° |
| 2026-05-06 21:16 | -29.56929 | -49.85080 | 3123 ft | 131 kts | 43° |
| 2026-05-06 21:16 | -29.56293 | -49.84293 | 2978 ft | 137 kts | 42° |
| 2026-05-06 21:16 | -29.55638 | -49.83485 | 2838 ft | 138 kts | 42° |
| 2026-05-06 21:16 | -29.54992 | -49.82686 | 2702 ft | 139 kts | 43° |
| 2026-05-06 21:17 | -29.54328 | -49.81873 | 2555 ft | 140 kts | 43° |
| 2026-05-06 21:17 | -29.53683 | -49.81085 | 2417 ft | 138 kts | 43° |
| 2026-05-06 21:17 | -29.53021 | -49.80282 | 2274 ft | 139 kts | 43° |
| 2026-05-06 21:17 | -29.52353 | -49.79480 | 2130 ft | 139 kts | 42° |
| 2026-05-06 21:18 | -29.51679 | -49.78673 | 1988 ft | 140 kts | 42° |
| 2026-05-06 21:18 | -29.50967 | -49.77922 | 1842 ft | 138 kts | 37° |
| 2026-05-06 21:18 | -29.50234 | -49.77208 | 1692 ft | 138 kts | 38° |
| 2026-05-06 21:18 | -29.49486 | -49.76519 | 1549 ft | 137 kts | 37° |
| 2026-05-06 21:19 | -29.48746 | -49.75831 | 1400 ft | 136 kts | 37° |
| 2026-05-06 21:19 | -29.48017 | -49.75138 | 1257 ft | 136 kts | 37° |
| 2026-05-06 21:19 | -29.47154 | -49.74821 | 1083 ft | 128 kts | 0° |
| 2026-05-06 21:19 | -29.46373 | -49.74913 | 1126 ft | 98 kts | 348° |
| 2026-05-06 21:20 | -29.45844 | -49.75232 | 1148 ft | 84 kts | 326° |
| 2026-05-06 21:20 | -29.45414 | -49.75725 | 1208 ft | 95 kts | 312° |
| 2026-05-06 21:20 | -29.44991 | -49.76386 | 1218 ft | 109 kts | 312° |
| 2026-05-06 21:20 | -29.44518 | -49.77084 | 1228 ft | 109 kts | 312° |
| 2026-05-06 21:21 | -29.44068 | -49.77759 | 1231 ft | 105 kts | 312° |
| 2026-05-06 21:21 | -29.43644 | -49.78418 | 1222 ft | 100 kts | 312° |
| 2026-05-06 21:21 | -29.43439 | -49.79171 | 1164 ft | 111 kts | 261° |
| 2026-05-06 21:21 | -29.44019 | -49.79762 | 1127 ft | 116 kts | 208° |
| 2026-05-06 21:22 | -29.44726 | -49.80214 | 1132 ft | 117 kts | 210° |
| 2026-05-06 21:22 | -29.45421 | -49.80694 | 1136 ft | 116 kts | 211° |
| 2026-05-06 21:22 | -29.45750 | -49.81408 | 1048 ft | 97 kts | 285° |
| 2026-05-06 21:22 | -29.45543 | -49.82104 | 1037 ft | 93 kts | 293° |
| 2026-05-06 21:23 | -29.45240 | -49.82724 | 959 ft | 87 kts | 327° |
| 2026-05-06 21:23 | -29.44667 | -49.82750 | 849 ft | 84 kts | 7° |
| 2026-05-06 21:23 | -29.44083 | -49.82730 | 695 ft | 79 kts | 3° |
| 2026-05-06 21:23 | -29.43538 | -49.82692 | 504 ft | 76 kts | 9° |
| 2026-05-06 21:24 | -29.43084 | -49.82449 | 426 ft | 73 kts | 35° |
| 2026-05-06 21:24 | -29.42684 | -49.82078 | 222 ft | 71 kts | 38° |
| 2026-05-06 21:24 | -29.42322 | -49.81756 | 143 ft | 64 kts | 37° |
| 2026-05-06 21:24 | -29.41961 | -49.81425 | 64 ft | 69 kts | 37° |
| 2026-05-06 21:25 | -29.41602 | -49.81102 | 43 ft | 62 kts | 37° |
| 2026-05-06 21:25 | -29.41277 | -49.80817 | 43 ft | 57 kts | 35° |
| 2026-05-06 21:25 | -29.41011 | -49.80558 | 42 ft | 25 kts | 43° |
| 2026-05-06 21:25 | -29.40991 | -49.80571 | 41 ft | 10 kts | 172° |
| 2026-05-06 21:26 | -29.41083 | -49.80641 | 42 ft | 23 kts | 224° |
| 2026-05-06 21:26 | -29.41237 | -49.80741 | 41 ft | 14 kts | 158° |
| 2026-05-06 21:26 | -29.41269 | -49.80685 | 41 ft | 0 kts | 114° |
| 2026-05-06 21:28 | -29.41284 | -49.80665 | 40 ft | 7 kts | 129° |
| 2026-05-06 21:28 | -29.41324 | -49.80607 | 39 ft | 12 kts | 126° |
| 2026-05-06 21:29 | -29.41356 | -49.80574 | 39 ft | 0 kts | 336° |